Time;durP1;ratioP1;P1;durP2;ratioP2;P2;SDS_P1;SDS_P2;PMS_P1;PMS_P2;Temp;Humidity;BMP_temperature;BMP_pressure;BME280_temperature;BME280_humidity;BME280_pressure;Samples;Min_cycle;Max_cycle;Signal;HPM_P1;HPM_P2
2023/06/22 03:18:08;;;;;;;15.45;4.45;;;21.90;94.80;;;;;;6234042;22;94416;-68
2023/06/22 03:20:33;;;;;;;8.32;3.42;;;21.90;95.00;;;;;;6246865;22;92748;-69
2023/06/22 03:23:00;;;;;;;10.13;3.88;;;21.80;95.20;;;;;;6219468;22;92684;-69
2023/06/22 03:25:25;;;;;;;13.10;4.03;;;21.90;95.10;;;;;;6247642;22;92429;-68
2023/06/22 03:27:51;;;;;;;12.77;3.95;;;21.90;95.50;;;;;;6246487;22;93090;-68
2023/06/22 03:30:17;;;;;;;14.02;4.07;;;21.80;95.50;;;;;;6247194;22;93424;-68
2023/06/22 03:32:43;;;;;;;13.25;4.60;;;21.90;95.30;;;;;;6247047;22;92362;-68
2023/06/22 03:35:12;;;;;;;10.13;4.40;;;21.80;95.30;;;;;;6246609;22;92223;-68
2023/06/22 03:37:38;;;;;;;12.10;4.00;;;21.80;95.80;;;;;;6245386;22;94668;-69
2023/06/22 03:40:07;;;;;;;11.77;4.20;;;21.80;96.00;;;;;;6246910;22;94312;-68
2023/06/22 03:42:36;;;;;;;13.93;4.35;;;21.80;96.10;;;;;;6246486;22;92186;-68
2023/06/22 03:45:03;;;;;;;11.80;4.25;;;21.90;96.00;;;;;;6247658;22;92075;-68
2023/06/22 03:47:29;;;;;;;9.32;3.65;;;21.80;95.90;;;;;;6246615;22;93375;-67
2023/06/22 03:49:55;;;;;;;15.18;4.47;;;21.80;96.30;;;;;;6246625;22;93178;-67
2023/06/22 03:52:22;;;;;;;10.77;4.22;;;21.90;96.20;;;;;;6247334;22;92400;-68
2023/06/22 03:54:48;;;;;;;11.63;4.22;;;21.90;96.20;;;;;;6247468;22;91781;-68
2023/06/22 03:57:13;;;;;;;13.13;4.25;;;21.90;96.10;;;;;;6246635;22;92580;-69
2023/06/22 03:59:39;;;;;;;14.63;4.22;;;21.90;96.20;;;;;;6246195;22;92516;-68
2023/06/22 04:02:05;;;;;;;11.35;3.35;;;22.00;95.80;;;;;;6245481;22;93311;-68
2023/06/22 04:04:30;;;;;;;13.43;4.53;;;22.10;95.50;;;;;;6246501;22;92269;-68
2023/06/22 04:06:56;;;;;;;9.77;3.50;;;22.10;95.40;;;;;;6246620;22;94062;-67
2023/06/22 04:09:22;;;;;;;10.02;4.32;;;22.10;95.50;;;;;;6246599;22;91938;-68
2023/06/22 04:11:47;;;;;;;13.05;4.60;;;22.10;95.20;;;;;;6246858;22;92976;-68
2023/06/22 04:14:13;;;;;;;12.13;4.28;;;22.10;95.10;;;;;;6246766;22;92449;-67
2023/06/22 04:16:39;;;;;;;13.32;4.35;;;22.10;95.10;;;;;;6237937;22;92666;-67
2023/06/22 04:19:04;;;;;;;8.68;3.65;;;22.10;95.10;;;;;;6215848;22;93087;-71
2023/06/22 04:21:30;;;;;;;10.70;3.55;;;22.20;95.10;;;;;;6215989;22;92625;-71
2023/06/22 04:23:56;;;;;;;11.35;3.45;;;22.30;94.80;;;;;;6215786;22;92386;-72
2023/06/22 04:26:21;;;;;;;15.20;4.07;;;22.40;94.10;;;;;;6214896;22;93522;-73
2023/06/22 04:28:55;;;;;;;8.05;4.00;;;22.50;93.60;;;;;;6215234;22;93636;-72
2023/06/22 04:31:21;;;;;;;12.20;3.72;;;22.60;93.20;;;;;;6216006;22;92304;-73
2023/06/22 04:33:47;;;;;;;10.73;3.47;;;22.70;92.80;;;;;;6216027;22;92268;-72
2023/06/22 04:36:13;;;;;;;13.43;3.90;;;22.80;92.70;;;;;;6215355;22;93076;-74
2023/06/22 04:38:39;;;;;;;11.57;3.35;;;23.00;92.20;;;;;;6214950;22;93451;-75
2023/06/22 04:41:06;;;;;;;12.50;4.10;;;23.10;91.60;;;;;;6216189;22;92433;-73
2023/06/22 04:43:33;;;;;;;10.85;4.10;;;23.30;90.80;;;;;;6216213;22;91337;-73
2023/06/22 04:46:03;;;;;;;12.43;4.07;;;23.60;90.70;;;;;;6215725;22;93313;-74
2023/06/22 04:48:32;;;;;;;13.45;4.82;;;23.70;89.30;;;;;;6214831;22;92548;-73
2023/06/22 04:51:02;;;;;;;10.93;4.18;;;23.90;88.30;;;;;;6214955;22;93601;-73
2023/06/22 04:53:29;;;;;;;12.18;4.35;;;24.20;87.20;;;;;;6216168;22;92358;-73
2023/06/22 04:55:55;;;;;;;14.35;4.30;;;24.60;85.90;;;;;;6214866;22;93552;-74
2023/06/22 04:58:21;;;;;;;11.85;4.20;;;24.90;83.60;;;;;;6215122;22;92489;-73
2023/06/22 05:00:47;;;;;;;8.77;3.72;;;25.10;82.00;;;;;;6215515;22;92133;-74
2023/06/22 05:03:13;;;;;;;12.90;4.55;;;25.30;81.00;;;;;;6215573;22;92411;-74
2023/06/22 05:05:39;;;;;;;14.32;4.68;;;25.70;79.50;;;;;;6214678;22;92595;-74
2023/06/22 05:08:06;;;;;;;13.95;4.35;;;26.00;78.80;;;;;;6215331;22;92736;-73
2023/06/22 05:10:33;;;;;;;12.65;4.63;;;26.40;77.70;;;;;;6215248;22;92391;-74
2023/06/22 05:12:58;;;;;;;16.35;4.63;;;27.10;75.50;;;;;;6215855;22;92165;-74
2023/06/22 05:15:27;;;;;;;15.15;4.30;;;27.80;72.90;;;;;;6214173;22;94017;-71
2023/06/22 05:17:53;;;;;;;12.48;5.07;;;28.30;69.50;;;;;;6215247;22;93651;-73
2023/06/22 05:20:19;;;;;;;10.70;3.97;;;28.70;69.00;;;;;;6216820;22;92038;-73
2023/06/22 05:22:44;;;;;;;13.38;4.53;;;29.00;68.70;;;;;;6216572;22;92724;-74
2023/06/22 05:25:11;;;;;;;9.93;4.72;;;29.50;67.30;;;;;;6216383;22;93254;-74
2023/06/22 05:27:40;;;;;;;9.95;3.85;;;29.80;66.30;;;;;;6216362;22;92678;-73
2023/06/22 05:30:07;;;;;;;10.48;4.60;;;29.90;65.70;;;;;;6216346;22;92374;-73
2023/06/22 05:32:33;;;;;;;11.60;4.80;;;29.50;65.70;;;;;;6217179;22;91595;-72
2023/06/22 05:34:59;;;;;;;16.85;4.72;;;29.40;65.80;;;;;;6215694;22;93028;-73
2023/06/22 05:37:26;;;;;;;10.43;4.72;;;29.20;65.50;;;;;;6216463;22;93255;-72
2023/06/22 05:39:51;;;;;;;13.32;6.15;;;29.30;65.60;;;;;;6215380;22;93313;-73
2023/06/22 05:42:17;;;;;;;11.20;5.00;;;29.60;65.10;;;;;;6217048;22;92378;-73
2023/06/22 05:44:43;;;;;;;8.40;4.85;;;30.30;63.90;;;;;;6215797;22;93258;-72
2023/06/22 05:47:08;;;;;;;14.23;4.85;;;31.20;61.60;;;;;;6216380;22;92291;-72
2023/06/22 05:49:34;;;;;;;11.80;5.72;;;31.70;60.60;;;;;;6216116;22;92247;-72
2023/06/22 05:52:00;;;;;;;14.63;5.75;;;32.50;58.50;;;;;;6216872;22;92751;-72
2023/06/22 05:54:27;;;;;;;9.82;5.55;;;33.00;57.50;;;;;;6216072;22;93226;-73
2023/06/22 05:56:53;;;;;;;13.82;6.18;;;33.60;56.70;;;;;;6216555;22;91917;-73
2023/06/22 05:59:19;;;;;;;12.65;5.55;;;34.20;55.60;;;;;;6216564;22;92314;-70
2023/06/22 06:01:46;;;;;;;23.52;6.03;;;34.60;54.40;;;;;;6216440;22;92405;-74
2023/06/22 06:04:12;;;;;;;10.77;6.45;;;35.00;53.30;;;;;;6215355;22;94106;-75
2023/06/22 06:06:37;;;;;;;9.35;6.32;;;35.80;52.20;;;;;;6215751;22;93713;-75
2023/06/22 06:09:04;;;;;;;12.98;6.68;;;36.30;51.20;;;;;;6216778;22;92364;-76
2023/06/22 06:11:30;;;;;;;12.13;5.72;;;36.70;49.70;;;;;;6216684;22;92514;-75
2023/06/22 06:13:56;;;;;;;10.65;5.82;;;36.80;49.40;;;;;;6215639;22;93205;-75
2023/06/22 06:16:22;;;;;;;18.63;7.07;;;37.00;49.70;;;;;;6215369;22;92728;-75
2023/06/22 06:18:53;;;;;;;13.23;6.43;;;36.50;49.30;;;;;;6216151;22;92214;-74
2023/06/22 06:21:18;;;;;;;12.18;5.90;;;36.50;49.60;;;;;;6217161;22;91362;-75
2023/06/22 06:23:44;;;;;;;15.40;6.20;;;36.80;49.20;;;;;;6214877;22;93072;-72
2023/06/22 06:26:10;;;;;;;16.77;6.72;;;37.10;48.80;;;;;;6215895;22;92902;-73
2023/06/22 06:28:35;;;;;;;15.95;6.25;;;37.10;49.10;;;;;;6215357;22;93181;-73
2023/06/22 06:31:01;;;;;;;12.98;6.22;;;36.20;49.70;;;;;;6214956;22;92258;-74
2023/06/22 06:33:27;;;;;;;15.50;6.53;;;36.40;49.70;;;;;;6216184;22;92699;-74
2023/06/22 06:35:53;;;;;;;12.32;5.63;;;37.50;49.10;;;;;;6214760;22;92599;-71
2023/06/22 06:38:18;;;;;;;12.50;7.13;;;38.20;47.40;;;;;;6216526;22;92365;-73
2023/06/22 06:40:45;;;;;;;12.75;6.18;;;38.50;47.00;;;;;;6215475;22;92311;-73
2023/06/22 06:43:10;;;;;;;11.07;6.75;;;38.60;46.20;;;;;;6215303;22;92627;-73
2023/06/22 06:45:36;;;;;;;12.18;6.72;;;38.90;46.40;;;;;;6216035;22;92367;-73
2023/06/22 06:48:02;;;;;;;13.95;7.20;;;39.00;46.50;;;;;;6216434;22;92351;-72
2023/06/22 06:50:28;;;;;;;14.43;8.02;;;39.20;46.00;;;;;;6216422;22;92264;-73
2023/06/22 06:52:54;;;;;;;13.35;7.15;;;39.20;46.30;;;;;;6214599;22;93321;-73
2023/06/22 06:55:20;;;;;;;12.02;7.55;;;39.50;46.00;;;;;;6214789;22;93592;-72
2023/06/22 06:57:48;;;;;;;11.52;6.22;;;39.70;44.30;;;;;;6216389;22;92281;-72
2023/06/22 07:00:15;;;;;;;11.98;7.80;;;40.30;44.20;;;;;;6215457;22;92030;-72
2023/06/22 07:02:42;;;;;;;15.85;8.18;;;40.60;44.50;;;;;;6215588;22;93187;-72
2023/06/22 07:05:08;;;;;;;13.60;7.72;;;40.90;43.40;;;;;;6214887;22;92770;-72
2023/06/22 07:07:35;;;;;;;16.25;7.95;;;41.00;42.90;;;;;;6216024;22;92252;-72
2023/06/22 07:10:01;;;;;;;14.55;6.07;;;41.40;42.80;;;;;;6216763;22;91591;-72
2023/06/22 07:12:26;;;;;;;13.45;7.63;;;42.00;42.00;;;;;;6214914;22;92553;-72
2023/06/22 07:14:53;;;;;;;14.65;9.02;;;42.50;41.30;;;;;;6215184;22;92718;-73
2023/06/22 07:17:18;;;;;;;16.95;8.65;;;42.70;41.20;;;;;;6213790;22;93062;-72
2023/06/22 07:19:45;;;;;;;16.40;8.32;;;42.60;40.90;;;;;;6216258;22;91949;-73
2023/06/22 07:22:11;;;;;;;12.85;7.63;;;41.90;41.40;;;;;;6215359;22;92489;-73
2023/06/22 07:24:37;;;;;;;13.50;7.53;;;41.10;42.50;;;;;;6214900;22;92316;-72
2023/06/22 07:27:03;;;;;;;12.77;7.55;;;40.20;43.30;;;;;;6215292;22;92821;-72
2023/06/22 07:29:29;;;;;;;14.93;8.30;;;40.00;43.80;;;;;;6216006;22;92449;-72
2023/06/22 07:31:56;;;;;;;12.23;6.07;;;39.70;43.40;;;;;;6214354;22;93044;-73
2023/06/22 07:34:22;;;;;;;14.00;7.78;;;39.20;44.30;;;;;;6215758;22;93379;-73
2023/06/22 07:36:48;;;;;;;12.50;6.65;;;38.90;44.50;;;;;;6215592;22;92281;-73
2023/06/22 07:39:14;;;;;;;12.13;8.07;;;39.10;45.50;;;;;;6215087;22;92682;-72
2023/06/22 07:41:43;;;;;;;14.57;8.45;;;39.10;44.70;;;;;;6213240;22;93469;-72
2023/06/22 07:44:09;;;;;;;14.65;8.02;;;40.10;44.50;;;;;;6213997;22;93244;-72
2023/06/22 07:46:34;;;;;;;17.85;8.68;;;40.60;43.70;;;;;;6208346;22;92522;-72
2023/06/22 07:49:01;;;;;;;16.88;8.40;;;40.80;43.20;;;;;;6211971;22;92394;-72
2023/06/22 07:51:27;;;;;;;13.35;7.22;;;41.60;42.50;;;;;;6212014;22;93215;-73
2023/06/22 07:53:53;;;;;;;12.07;8.25;;;42.20;40.80;;;;;;6212800;22;92764;-72
2023/06/22 07:56:20;;;;;;;15.88;9.45;;;42.60;41.20;;;;;;6213378;22;92370;-72
2023/06/22 07:58:46;;;;;;;15.20;9.48;;;43.40;39.70;;;;;;6213488;22;91598;-72
2023/06/22 08:01:13;;;;;;;12.20;9.70;;;43.60;39.60;;;;;;6211853;22;93735;-72
2023/06/22 08:03:39;;;;;;;15.32;10.23;;;43.30;39.20;;;;;;6212240;22;92449;-74
2023/06/22 08:06:05;;;;;;;14.43;10.35;;;43.40;39.60;;;;;;6211122;22;93120;-73
2023/06/22 08:08:31;;;;;;;14.25;9.52;;;43.60;39.40;;;;;;6211911;22;92562;-72
2023/06/22 08:10:57;;;;;;;17.13;9.65;;;43.90;39.50;;;;;;6209044;22;92677;-73
2023/06/22 08:13:23;;;;;;;14.93;9.63;;;44.50;37.90;;;;;;6213201;22;92894;-73
2023/06/22 08:15:49;;;;;;;11.57;7.50;;;44.70;38.80;;;;;;6214079;22;92676;-73
2023/06/22 08:18:18;;;;;;;16.50;10.48;;;44.90;38.20;;;;;;6213748;22;92426;-74
2023/06/22 08:20:44;;;;;;;12.48;9.73;;;44.70;38.50;;;;;;6211662;22;94815;-72
2023/06/22 08:23:10;;;;;;;14.68;8.75;;;44.00;37.80;;;;;;6212977;22;93199;-72
2023/06/22 08:25:36;;;;;;;14.57;8.15;;;42.90;39.70;;;;;;6212491;22;92213;-71
2023/06/22 08:28:03;;;;;;;15.40;7.95;;;41.20;41.30;;;;;;6186359;22;92576;-71
2023/06/22 08:30:30;;;;;;;11.23;7.32;;;39.90;41.50;;;;;;6210740;22;93490;-71
2023/06/22 08:32:56;;;;;;;12.52;7.13;;;38.50;44.40;;;;;;6211227;22;93311;-71
2023/06/22 08:35:23;;;;;;;15.80;7.07;;;36.90;46.20;;;;;;6186135;22;94145;-73
2023/06/22 08:37:55;;;;;;;16.38;6.65;;;35.80;47.90;;;;;;6208572;22;92645;-71
2023/06/22 08:40:22;;;;;;;14.98;7.07;;;34.80;49.80;;;;;;6185300;22;96899;-73
2023/06/22 08:42:49;;;;;;;9.88;6.45;;;34.00;51.20;;;;;;6202314;22;93113;-69
2023/06/22 08:45:16;;;;;;;18.05;6.60;;;33.40;51.80;;;;;;6211828;22;92334;-70
2023/06/22 08:47:42;;;;;;;14.32;6.25;;;32.50;53.00;;;;;;6213147;22;91375;-70
2023/06/22 08:50:10;;;;;;;13.68;6.80;;;31.70;54.30;;;;;;6208519;22;93163;-70
2023/06/22 08:52:37;;;;;;;15.18;6.55;;;31.40;55.40;;;;;;6208254;22;94182;-72
2023/06/22 08:55:04;;;;;;;15.55;5.43;;;31.00;56.70;;;;;;6212395;22;93199;-70
2023/06/22 08:57:30;;;;;;;13.50;5.40;;;30.80;58.10;;;;;;6176359;22;92899;-71
2023/06/22 08:59:58;;;;;;;14.45;6.28;;;30.60;58.20;;;;;;6212082;22;93494;-71
2023/06/22 09:02:31;;;;;;;15.98;6.13;;;30.60;58.40;;;;;;6210976;22;93546;-72
2023/06/22 09:04:58;;;;;;;14.98;6.93;;;30.30;58.70;;;;;;6212023;22;92462;-70
2023/06/22 09:07:25;;;;;;;17.27;6.38;;;30.50;59.30;;;;;;6213542;22;92461;-71
2023/06/22 09:09:52;;;;;;;18.67;7.28;;;30.80;58.80;;;;;;6211172;22;92720;-71
2023/06/22 09:12:25;;;;;;;13.57;5.90;;;31.10;58.40;;;;;;6211813;22;92427;-70
2023/06/22 09:14:52;;;;;;;11.57;6.60;;;31.40;57.80;;;;;;6182710;22;92393;-71
2023/06/22 09:17:17;;;;;;;18.02;5.43;;;31.80;56.80;;;;;;6212415;22;93288;-71
2023/06/22 09:19:43;;;;;;;14.95;6.78;;;32.30;56.30;;;;;;6205617;22;93570;-70
2023/06/22 09:22:09;;;;;;;15.27;5.55;;;32.90;55.30;;;;;;6200398;22;94850;-72
2023/06/22 09:24:36;;;;;;;12.30;7.00;;;33.40;54.70;;;;;;6213433;22;93202;-70
2023/06/22 09:27:02;;;;;;;16.33;7.18;;;33.80;53.00;;;;;;6185132;22;92421;-72
2023/06/22 09:29:28;;;;;;;15.35;6.85;;;34.30;53.20;;;;;;6212112;22;92408;-70
2023/06/22 09:31:56;;;;;;;14.82;7.05;;;34.40;52.50;;;;;;6180188;22;95414;-70
2023/06/22 09:34:23;;;;;;;14.07;7.70;;;34.70;52.20;;;;;;6199327;22;92916;-70
2023/06/22 09:36:49;;;;;;;17.25;6.72;;;35.70;51.50;;;;;;6206165;22;92465;-73
2023/06/22 09:39:15;;;;;;;12.88;7.15;;;36.80;49.90;;;;;;6204755;22;93129;-71
2023/06/22 09:41:41;;;;;;;17.92;9.10;;;37.60;49.10;;;;;;6209893;22;92505;-72
2023/06/22 09:44:07;;;;;;;12.52;7.82;;;37.80;46.90;;;;;;6211588;22;93500;-71
2023/06/22 09:46:33;;;;;;;15.43;7.50;;;37.90;46.80;;;;;;6210725;22;92249;-71
2023/06/22 09:48:59;;;;;;;13.30;7.13;;;38.00;47.30;;;;;;6184228;22;95122;-71
2023/06/22 09:51:25;;;;;;;16.73;6.05;;;37.80;46.10;;;;;;6211305;22;92718;-73
2023/06/22 09:53:53;;;;;;;13.45;7.70;;;37.60;47.40;;;;;;6211297;22;92466;-71
2023/06/22 09:56:20;;;;;;;14.15;7.65;;;37.50;46.60;;;;;;6184570;22;92581;-72
2023/06/22 09:58:47;;;;;;;16.42;8.60;;;36.90;47.80;;;;;;6184528;22;95072;-72
2023/06/22 10:01:16;;;;;;;17.05;8.02;;;36.40;48.20;;;;;;6210301;22;92777;-72
2023/06/22 10:03:42;;;;;;;15.48;8.23;;;36.30;49.20;;;;;;6212101;22;92392;-71
2023/06/22 10:06:08;;;;;;;17.73;8.20;;;36.60;48.10;;;;;;6214398;22;92452;-71
2023/06/22 10:08:39;;;;;;;16.48;9.00;;;36.80;47.50;;;;;;6212328;22;93524;-73
2023/06/22 10:11:05;;;;;;;13.68;7.88;;;36.80;48.70;;;;;;6213076;22;92347;-72
2023/06/22 10:13:30;;;;;;;14.95;7.20;;;36.80;48.30;;;;;;6215239;22;92390;-71
2023/06/22 10:15:56;;;;;;;18.00;9.40;;;36.70;49.20;;;;;;6210372;22;92460;-71
2023/06/22 10:18:22;;;;;;;18.63;8.25;;;36.60;49.20;;;;;;6213300;22;93910;-71
2023/06/22 10:20:52;;;;;;;16.85;8.32;;;36.30;50.60;;;;;;6213936;22;92404;-70
2023/06/22 10:23:19;;;;;;;25.60;9.63;;;36.40;50.00;;;;;;6214104;22;92338;-70
2023/06/22 10:25:45;;;;;;;14.98;6.93;;;36.30;49.10;;;;;;6215429;22;91673;-73
2023/06/22 10:28:12;;;;;;;14.30;7.95;;;35.90;49.90;;;;;;6213743;22;93006;-71
2023/06/22 10:30:41;;;;;;;17.83;7.75;;;35.60;49.80;;;;;;6211940;22;94923;-71
2023/06/22 10:33:11;;;;;;;15.73;8.32;;;35.40;50.90;;;;;;6185428;22;93665;-71
2023/06/22 10:35:38;;;;;;;15.05;7.68;;;35.00;51.60;;;;;;6212693;22;92530;-71
2023/06/22 10:38:04;;;;;;;15.18;8.10;;;35.10;51.90;;;;;;6212641;22;92529;-71
2023/06/22 10:40:30;;;;;;;23.33;8.00;;;35.10;52.90;;;;;;6210678;22;92328;-72
2023/06/22 10:42:59;;;;;;;14.40;6.88;;;35.00;52.70;;;;;;6213253;22;92315;-71
2023/06/22 10:45:27;;;;;;;14.93;7.32;;;34.90;52.30;;;;;;6213953;22;92600;-71
2023/06/22 10:47:53;;;;;;;19.48;8.75;;;35.00;52.30;;;;;;6212856;22;92641;-72
2023/06/22 10:50:20;;;;;;;14.75;8.32;;;34.90;51.70;;;;;;6184739;22;96832;-71
2023/06/22 10:52:45;;;;;;;16.38;8.40;;;34.60;52.10;;;;;;6212617;22;92413;-71
2023/06/22 10:55:11;;;;;;;17.50;9.43;;;34.70;51.60;;;;;;6186672;22;92186;-71
2023/06/22 10:57:41;;;;;;;16.80;9.25;;;34.60;51.80;;;;;;6184536;22;97473;-72
2023/06/22 11:00:08;;;;;;;16.67;8.60;;;34.20;52.00;;;;;;6211989;22;94321;-71
2023/06/22 11:02:34;;;;;;;20.65;8.23;;;34.10;52.60;;;;;;6211637;22;92458;-70
2023/06/22 11:05:00;;;;;;;20.00;8.68;;;34.20;53.60;;;;;;6213621;22;92277;-71
2023/06/22 11:07:28;;;;;;;15.35;8.30;;;34.40;53.60;;;;;;6214822;22;92676;-71
2023/06/22 11:09:54;;;;;;;15.57;7.97;;;34.50;53.10;;;;;;6212584;22;92858;-71
2023/06/22 11:12:20;;;;;;;20.85;9.95;;;34.50;52.80;;;;;;6209052;22;92327;-71
2023/06/22 11:14:45;;;;;;;17.73;9.73;;;34.70;52.50;;;;;;6211810;22;91646;-70
2023/06/22 11:17:11;;;;;;;16.92;8.35;;;34.40;53.00;;;;;;6209934;22;94061;-69
2023/06/22 11:19:37;;;;;;;18.00;9.30;;;34.40;53.00;;;;;;6209960;22;92597;-71
2023/06/22 11:22:02;;;;;;;15.90;8.63;;;34.40;53.40;;;;;;6209611;22;93458;-71
2023/06/22 11:24:28;;;;;;;13.40;7.13;;;34.50;53.20;;;;;;6213336;22;92290;-70
2023/06/22 11:26:54;;;;;;;16.77;8.15;;;34.40;53.10;;;;;;6213018;22;93097;-70
2023/06/22 11:29:19;;;;;;;18.08;7.43;;;34.30;54.30;;;;;;6212402;22;93283;-71
2023/06/22 11:31:45;;;;;;;19.38;8.45;;;34.20;53.80;;;;;;6213362;22;92372;-71
2023/06/22 11:34:11;;;;;;;18.75;8.68;;;34.20;54.80;;;;;;6212961;22;92365;-70
2023/06/22 11:36:37;;;;;;;17.27;7.75;;;34.30;54.20;;;;;;6213243;22;93090;-71
2023/06/22 11:39:02;;;;;;;16.63;8.70;;;34.30;54.10;;;;;;6213523;22;92798;-71
2023/06/22 11:41:28;;;;;;;15.15;8.38;;;34.30;54.30;;;;;;6214218;22;92538;-71
2023/06/22 11:43:54;;;;;;;16.98;8.38;;;34.30;52.80;;;;;;6215113;22;92474;-71
2023/06/22 11:46:19;;;;;;;16.00;7.20;;;34.10;53.00;;;;;;6213262;22;94413;-70
2023/06/22 11:48:45;;;;;;;15.45;7.25;;;34.00;54.70;;;;;;6213700;22;93285;-70
2023/06/22 11:51:11;;;;;;;15.80;6.90;;;33.90;54.90;;;;;;6214318;22;92260;-70
2023/06/22 11:53:36;;;;;;;24.42;7.43;;;33.80;55.50;;;;;;6214173;22;92411;-71
2023/06/22 11:56:02;;;;;;;15.23;6.53;;;33.70;54.70;;;;;;6212552;22;93841;-70
2023/06/22 11:58:28;;;;;;;14.15;6.80;;;33.60;53.80;;;;;;6213923;22;92586;-71
2023/06/22 12:00:54;;;;;;;14.45;6.20;;;33.70;54.00;;;;;;6215332;22;92341;-71
2023/06/22 12:03:21;;;;;;;16.70;6.13;;;33.70;55.10;;;;;;6213331;22;91541;-70
2023/06/22 12:05:47;;;;;;;15.63;6.18;;;33.70;55.40;;;;;;6213781;22;92213;-53
2023/06/22 12:08:13;;;;;;;12.98;5.68;;;33.20;54.90;;;;;;6213875;22;93153;-54
2023/06/22 12:10:39;;;;;;;19.58;6.78;;;33.00;56.70;;;;;;6213393;22;93307;-50
2023/06/22 12:13:05;;;;;;;21.30;6.90;;;32.80;57.20;;;;;;6215133;22;91952;-70
2023/06/22 12:15:30;;;;;;;15.57;6.38;;;32.50;58.00;;;;;;6213974;22;93065;-71
2023/06/22 12:17:56;;;;;;;18.48;6.55;;;32.60;57.10;;;;;;6213168;22;92539;-71
2023/06/22 12:20:22;;;;;;;21.60;5.90;;;32.80;57.10;;;;;;6214883;22;92434;-72
2023/06/22 12:22:48;;;;;;;20.80;6.25;;;32.80;57.20;;;;;;6215967;22;92356;-70
2023/06/22 12:25:13;;;;;;;19.90;6.03;;;33.00;57.50;;;;;;6215107;22;93104;-70
2023/06/22 12:27:39;;;;;;;20.65;5.72;;;33.10;56.50;;;;;;6214211;22;93353;-71
2023/06/22 12:30:05;;;;;;;13.55;5.88;;;33.30;56.40;;;;;;6213977;22;92359;-71
2023/06/22 12:32:31;;;;;;;15.38;6.00;;;33.40;55.90;;;;;;6215678;22;92338;-71
2023/06/22 12:34:57;;;;;;;16.80;6.30;;;33.30;56.10;;;;;;6213109;22;93571;-71
2023/06/22 12:37:23;;;;;;;20.30;5.53;;;33.40;56.50;;;;;;6214608;22;94200;-70
2023/06/22 12:39:49;;;;;;;16.88;6.60;;;33.40;56.40;;;;;;6214716;22;92481;-72
2023/06/22 12:42:16;;;;;;;20.52;6.20;;;33.60;57.30;;;;;;6215283;22;92064;-70
2023/06/22 12:44:42;;;;;;;19.20;6.03;;;33.60;56.40;;;;;;6214818;22;93751;-71
2023/06/22 12:47:08;;;;;;;18.85;5.88;;;33.70;56.00;;;;;;6214793;22;92820;-71
2023/06/22 12:49:35;;;;;;;12.48;5.80;;;33.80;55.70;;;;;;6215903;22;92690;-71
2023/06/22 12:52:01;;;;;;;14.85;5.53;;;33.80;54.10;;;;;;6215382;22;91592;-72
2023/06/22 12:54:28;;;;;;;18.65;5.90;;;34.00;54.80;;;;;;6213654;22;92635;-73
2023/06/22 12:56:53;;;;;;;15.70;5.60;;;33.90;55.50;;;;;;6213685;22;93912;-71
2023/06/22 12:59:19;;;;;;;10.30;5.07;;;34.00;55.90;;;;;;6213400;22;93557;-70
2023/06/22 13:01:45;;;;;;;24.35;6.07;;;34.00;53.60;;;;;;6215886;22;92372;-71
2023/06/22 13:04:14;;;;;;;12.95;4.75;;;34.10;53.50;;;;;;6212583;22;92706;-70
2023/06/22 13:06:41;;;;;;;15.88;4.97;;;34.10;54.20;;;;;;6213668;22;92597;-72
2023/06/22 13:09:06;;;;;;;15.45;5.30;;;34.10;55.20;;;;;;6215451;22;92354;-72
2023/06/22 13:11:32;;;;;;;13.30;6.07;;;34.00;55.00;;;;;;6215244;22;92029;-70
2023/06/22 13:13:58;;;;;;;17.27;5.25;;;34.20;54.10;;;;;;6214673;22;93273;-70
2023/06/22 13:16:23;;;;;;;20.30;5.78;;;34.30;53.40;;;;;;6214644;22;92706;-72
2023/06/22 13:18:49;;;;;;;20.48;5.00;;;34.40;53.70;;;;;;6215443;22;92032;-71
2023/06/22 13:21:15;;;;;;;16.98;5.32;;;34.20;54.10;;;;;;6215466;22;92355;-71
2023/06/22 13:23:40;;;;;;;11.73;5.47;;;34.10;53.30;;;;;;6213420;22;94000;-71
2023/06/22 13:26:07;;;;;;;15.18;6.07;;;34.30;54.40;;;;;;6214947;22;93664;-72
2023/06/22 13:28:32;;;;;;;17.52;7.10;;;34.50;56.60;;;;;;6215376;22;92348;-73
2023/06/22 13:30:58;;;;;;;17.48;8.05;;;34.70;58.10;;;;;;6215733;22;92079;-71
2023/06/22 13:33:24;;;;;;;18.35;7.65;;;34.70;56.90;;;;;;6214564;22;93086;-72
2023/06/22 13:35:49;;;;;;;18.52;8.07;;;34.60;57.50;;;;;;6214619;22;92528;-71
2023/06/22 13:38:15;;;;;;;22.42;7.07;;;34.50;57.20;;;;;;6215776;22;92341;-73
2023/06/22 13:40:41;;;;;;;20.90;7.00;;;34.40;57.60;;;;;;6217295;22;91686;-72
2023/06/22 13:43:06;;;;;;;21.00;7.47;;;34.30;58.80;;;;;;6216420;22;92338;-71
2023/06/22 13:45:32;;;;;;;18.40;7.40;;;34.30;57.00;;;;;;6215945;22;92659;-73
2023/06/22 13:47:58;;;;;;;17.95;6.65;;;34.20;56.10;;;;;;6216299;22;93228;-71
2023/06/22 13:50:24;;;;;;;17.77;8.57;;;34.10;56.40;;;;;;6216747;22;92394;-72
2023/06/22 13:52:49;;;;;;;17.17;7.00;;;34.10;56.10;;;;;;6216189;22;92760;-72
2023/06/22 13:55:15;;;;;;;20.65;6.00;;;34.00;55.00;;;;;;6216169;22;92859;-72
2023/06/22 13:57:41;;;;;;;15.75;6.25;;;33.90;55.90;;;;;;6216542;22;92335;-71
2023/06/22 14:00:08;;;;;;;15.57;4.85;;;33.80;55.60;;;;;;6216625;22;92409;-71
2023/06/22 14:02:34;;;;;;;13.77;5.75;;;33.70;55.20;;;;;;6215569;22;95244;-72
2023/06/22 14:05:00;;;;;;;20.60;6.63;;;33.80;56.60;;;;;;6216548;22;92797;-71
2023/06/22 14:07:26;;;;;;;18.10;5.82;;;33.80;57.00;;;;;;6216308;22;92139;-72
2023/06/22 14:09:52;;;;;;;13.85;5.85;;;34.00;56.00;;;;;;6216068;22;92246;-68
2023/06/22 14:12:17;;;;;;;11.70;5.05;;;33.80;55.50;;;;;;6215090;22;94084;-68
2023/06/22 14:14:43;;;;;;;16.92;6.28;;;33.30;55.50;;;;;;6215997;22;93085;-68
2023/06/22 14:17:10;;;;;;;12.68;5.63;;;32.70;56.80;;;;;;6216394;22;92382;-67
2023/06/22 14:19:35;;;;;;;11.00;5.95;;;32.40;58.10;;;;;;6216528;22;92663;-68
2023/06/22 14:22:02;;;;;;;14.30;6.05;;;32.30;58.40;;;;;;6216082;22;93185;-68
2023/06/22 14:24:27;;;;;;;18.92;5.57;;;32.30;58.80;;;;;;6215586;22;92363;-68
2023/06/22 14:26:54;;;;;;;13.02;4.82;;;32.30;60.60;;;;;;6216569;22;92658;-68
2023/06/22 14:29:20;;;;;;;17.25;6.13;;;32.30;58.80;;;;;;6216954;22;91674;-68
2023/06/22 14:31:46;;;;;;;21.08;6.13;;;32.20;58.80;;;;;;6215246;22;92623;-68
2023/06/22 14:34:12;;;;;;;17.40;6.75;;;32.00;59.20;;;;;;6216015;22;94659;-68
2023/06/22 14:36:38;;;;;;;11.02;5.43;;;31.90;58.70;;;;;;6215430;22;93309;-68
2023/06/22 14:39:04;;;;;;;14.18;6.05;;;31.70;59.80;;;;;;6216728;22;92265;-68
2023/06/22 14:41:30;;;;;;;12.77;4.30;;;31.40;61.10;;;;;;6215775;22;92602;-68
2023/06/22 14:43:56;;;;;;;17.35;5.55;;;31.30;61.20;;;;;;6215885;22;91938;-68
2023/06/22 14:46:21;;;;;;;16.83;5.57;;;31.40;60.90;;;;;;6216314;22;92370;-68
2023/06/22 14:48:47;;;;;;;19.13;5.85;;;31.40;60.30;;;;;;6216711;22;92480;-68
2023/06/22 14:51:13;;;;;;;16.70;5.57;;;31.40;60.70;;;;;;6215482;22;93068;-68
2023/06/22 14:53:39;;;;;;;16.70;5.28;;;31.10;61.70;;;;;;6216315;22;92788;-72
2023/06/22 14:56:05;;;;;;;19.10;5.47;;;31.20;60.90;;;;;;6215889;22;92258;-76
2023/06/22 14:58:35;;;;;;;16.45;6.47;;;31.10;60.00;;;;;;6216501;22;92355;-75
2023/06/22 15:01:04;;;;;;;13.50;5.35;;;31.10;60.50;;;;;;6214323;22;93995;-76
2023/06/22 15:03:31;;;;;;;16.45;6.35;;;31.20;61.00;;;;;;6214160;22;93759;-75
2023/06/22 15:05:58;;;;;;;13.20;4.88;;;31.10;61.70;;;;;;6215780;22;92252;-76
2023/06/22 15:08:24;;;;;;;20.98;7.30;;;31.00;61.60;;;;;;6216052;22;92358;-75
2023/06/22 15:10:51;;;;;;;21.33;5.97;;;30.80;62.40;;;;;;6214389;22;92834;-74
2023/06/22 15:13:18;;;;;;;17.63;5.43;;;30.70;64.30;;;;;;6214698;22;92428;-75
2023/06/22 15:15:45;;;;;;;15.93;7.07;;;30.60;62.90;;;;;;6214272;22;92628;-75
2023/06/22 15:18:11;;;;;;;16.65;6.10;;;30.40;61.50;;;;;;6215004;22;91764;-75
2023/06/22 15:20:36;;;;;;;22.83;6.53;;;30.20;62.10;;;;;;6214817;22;92541;-73
2023/06/22 15:23:02;;;;;;;18.63;6.25;;;29.90;63.00;;;;;;6215561;22;92735;-75
2023/06/22 15:25:28;;;;;;;21.45;6.45;;;29.90;63.60;;;;;;6215058;22;93197;-73
2023/06/22 15:27:53;;;;;;;19.83;6.70;;;29.90;66.40;;;;;;6215175;22;92932;-74
2023/06/22 15:30:20;;;;;;;17.25;7.20;;;29.80;66.70;;;;;;6215799;22;94055;-74
2023/06/22 15:32:47;;;;;;;14.60;6.55;;;29.60;68.20;;;;;;6215200;22;93349;-75
2023/06/22 15:35:14;;;;;;;23.92;7.35;;;29.50;67.10;;;;;;6215275;22;91988;-74
2023/06/22 15:37:40;;;;;;;21.08;8.05;;;29.70;68.20;;;;;;6214742;22;92401;-75
2023/06/22 15:40:06;;;;;;;21.27;8.15;;;29.80;69.00;;;;;;6215166;22;93531;-75
2023/06/22 15:42:32;;;;;;;14.55;5.88;;;29.80;68.00;;;;;;6216007;22;91667;-74
2023/06/22 15:44:57;;;;;;;19.73;5.45;;;30.00;67.40;;;;;;6216118;22;92631;-74
2023/06/22 15:47:23;;;;;;;15.50;6.63;;;30.30;67.70;;;;;;6215973;22;92304;-73
2023/06/22 15:49:50;;;;;;;20.40;5.15;;;30.60;66.60;;;;;;6215015;22;93503;-75